createdAt,value
2017-05-21T00:00:14.151Z,67.85
2017-05-21T00:01:26.985Z,67.85
2017-05-21T00:02:40.675Z,67.27
2017-05-21T00:03:56.276Z,67.18
2017-05-21T00:05:09.045Z,67.27
2017-05-21T00:06:53.968Z,67.18
2017-05-21T00:08:09.310Z,67.37
2017-05-21T00:09:24.950Z,67.37
2017-05-21T00:10:40.293Z,67.27
2017-05-21T00:11:55.852Z,67.76
2017-05-21T00:13:11.188Z,67.24
2017-05-21T00:14:26.408Z,67.43
2017-05-21T00:15:41.756Z,67.34
2017-05-21T00:16:57.135Z,67.34
2017-05-21T00:18:11.044Z,67.27
2017-05-21T00:19:25.395Z,67.14
2017-05-21T00:20:40.831Z,67.14
2017-05-21T00:21:56.161Z,67.34
2017-05-21T00:23:08.973Z,67.24
2017-05-21T00:24:21.632Z,67.05
2017-05-21T00:25:37.214Z,67.37
2017-05-21T00:26:51.280Z,67.82
2017-05-21T00:28:06.283Z,67.34
2017-05-21T00:29:21.675Z,67.47
2017-05-21T00:30:36.103Z,67.85
2017-05-21T00:31:49.789Z,67.53
2017-05-21T00:33:05.161Z,67.72
2017-05-21T00:34:19.253Z,67.82
2017-05-21T00:35:34.827Z,67.82
2017-05-21T00:36:50.188Z,67.82
2017-05-21T00:38:05.530Z,67.34
2017-05-21T00:39:20.874Z,67.24
2017-05-21T00:40:35.151Z,67.34
2017-05-21T00:41:49.203Z,67.34
2017-05-21T00:43:03.292Z,67.53
2017-05-21T00:44:17.353Z,67.43
2017-05-21T00:45:32.974Z,67.82
2017-05-21T00:46:46.875Z,67.63
2017-05-21T00:48:02.300Z,67.34
2017-05-21T00:49:17.640Z,67.72
2017-05-21T00:50:33.168Z,67.91
2017-05-21T00:51:48.431Z,67.91
2017-05-21T00:53:03.806Z,67.63
2017-05-21T00:54:19.149Z,67.91
2017-05-21T00:55:34.719Z,67.88
2017-05-21T00:56:50.041Z,68.29
2017-05-21T00:58:04.073Z,68.39
2017-05-21T00:59:19.270Z,68.01
2017-05-21T01:00:33.582Z,67.97
2017-05-21T01:01:47.530Z,68.07
2017-05-21T01:02:58.897Z,67.97
2017-05-21T01:04:14.468Z,67.97
2017-05-21T01:05:29.845Z,68.45
2017-05-21T01:06:43.971Z,68.35
2017-05-21T01:07:58.017Z,67.78
2017-05-21T01:09:13.356Z,67.88
2017-05-21T01:10:28.694Z,67.88
2017-05-21T01:11:44.244Z,67.72
2017-05-21T01:12:59.579Z,67.97
2017-05-21T01:14:13.607Z,67.97
2017-05-21T01:15:27.657Z,68.26
2017-05-21T01:16:42.016Z,67.97
2017-05-21T01:17:54.650Z,67.88
2017-05-21T01:19:10.030Z,67.88
2017-05-21T01:20:25.013Z,68.07
2017-05-21T01:21:40.652Z,68.07
2017-05-21T01:22:55.983Z,68.45
2017-05-21T01:24:10.044Z,67.97
2017-05-21T01:25:24.398Z,68.07
2017-05-21T01:26:39.979Z,68.55
2017-05-21T01:27:52.772Z,67.97
2017-05-21T01:29:07.062Z,68.55
2017-05-21T01:30:22.398Z,67.88
2017-05-21T01:31:37.780Z,68.55
2017-05-21T01:32:53.391Z,68.16
2017-05-21T01:34:06.063Z,68.35
2017-05-21T01:35:21.617Z,68.45
2017-05-21T01:36:35.695Z,68.74
2017-05-21T01:37:51.345Z,68.74
2017-05-21T01:39:06.915Z,68.93
2017-05-21T01:40:22.288Z,68.93
2017-05-21T01:41:37.647Z,68.64
2017-05-21T01:42:53.255Z,68.45
2017-05-21T01:44:07.486Z,68.45
2017-05-21T01:45:23.157Z,68.74
2017-05-21T01:47:09.439Z,69.12
2017-05-21T01:48:24.778Z,69.02
2017-05-21T01:49:37.544Z,68.93
2017-05-21T01:50:53.137Z,69.02
2017-05-21T01:52:06.018Z,69.41
2017-05-21T01:53:20.369Z,69.02
2017-05-21T01:54:34.435Z,69.21
2017-05-21T01:55:49.664Z,69.6
2017-05-21T01:57:05.041Z,69.7
2017-05-21T01:58:18.237Z,69.21
2017-05-21T01:59:33.609Z,69.41
2017-05-21T02:00:49.003Z,69.76
2017-05-21T02:02:03.085Z,69.7
2017-05-21T02:03:18.635Z,69.7
2017-05-21T02:04:32.694Z,70.33
2017-05-21T02:05:46.638Z,70.14
2017-05-21T02:07:02.025Z,70.27
2017-05-21T02:08:17.711Z,69.6
2017-05-21T02:09:33.069Z,69.76
2017-05-21T02:10:48.434Z,70.04
2017-05-21T02:12:03.752Z,69.56
2017-05-21T02:13:19.352Z,70.04
2017-05-21T02:14:34.842Z,69.66
2017-05-21T02:15:50.177Z,69.47
2017-05-21T02:17:05.780Z,69.66
2017-05-21T02:18:21.446Z,69.56
2017-05-21T02:19:34.208Z,69.47
2017-05-21T02:20:49.542Z,69.76
2017-05-21T02:22:04.515Z,69.85
2017-05-21T02:23:18.818Z,69.47
2017-05-21T02:24:34.471Z,69.66
2017-05-21T02:25:49.799Z,69.76
2017-05-21T02:27:05.188Z,69.85
2017-05-21T02:28:21.056Z,69.66
2017-05-21T02:29:36.404Z,69.66
2017-05-21T02:30:50.477Z,69.47
2017-05-21T02:32:05.867Z,69.56
2017-05-21T02:33:19.993Z,69.47
2017-05-21T02:34:35.586Z,69.76
2017-05-21T02:35:49.502Z,69.76
2017-05-21T02:37:04.866Z,69.76
2017-05-21T02:38:18.905Z,69.76
2017-05-21T02:39:33.152Z,70.14
2017-05-21T02:40:48.713Z,70.04
2017-05-21T02:42:02.761Z,70.14
2017-05-21T02:43:18.102Z,70.04
2017-05-21T02:44:33.720Z,70.14
2017-05-21T02:45:46.476Z,70.14
2017-05-21T02:47:00.602Z,70.23
2017-05-21T02:48:15.922Z,70.14
2017-05-21T02:49:30.185Z,70.23
2017-05-21T02:50:44.141Z,70.42
2017-05-21T02:51:59.469Z,70.14
2017-05-21T02:53:13.205Z,70.04
2017-05-21T02:54:28.737Z,69.85
2017-05-21T02:55:44.072Z,70.23
2017-05-21T02:56:59.429Z,70.23
2017-05-21T02:58:14.798Z,70.2
2017-05-21T02:59:29.089Z,70.23
2017-05-21T03:00:44.420Z,70.14
2017-05-21T03:01:59.751Z,70.23
2017-05-21T03:03:15.094Z,70.14
2017-05-21T03:04:29.487Z,70.01
2017-05-21T03:05:44.889Z,70.01
2017-05-21T03:07:00.264Z,70.2
2017-05-21T03:08:15.594Z,69.95
2017-05-21T03:09:31.149Z,69.72
2017-05-21T03:10:46.734Z,70.58
2017-05-21T03:12:02.104Z,70.58
2017-05-21T03:13:17.437Z,70.39
2017-05-21T03:14:32.986Z,70.29
2017-05-21T03:15:47.261Z,70.2
2017-05-21T03:17:02.245Z,70.29
2017-05-21T03:18:17.472Z,70.29
2017-05-21T03:19:32.857Z,70.96
2017-05-21T03:20:47.170Z,70.77
2017-05-21T03:22:01.290Z,70.81
2017-05-21T03:23:16.612Z,71.15
2017-05-21T03:24:30.663Z,70.77
2017-05-21T03:25:45.036Z,70.77
2017-05-21T03:26:58.817Z,71.15
2017-05-21T03:28:12.882Z,71.06
2017-05-21T03:29:27.076Z,70.96
2017-05-21T03:30:43.064Z,70.67
2017-05-21T03:31:58.402Z,70.67
2017-05-21T03:33:13.432Z,71.19
2017-05-21T03:34:28.805Z,70.96
2017-05-21T03:35:44.497Z,70.67
2017-05-21T03:36:59.821Z,71
2017-05-21T03:38:15.227Z,70.96
2017-05-21T03:39:30.579Z,70.48
2017-05-21T03:40:46.346Z,70.29
2017-05-21T03:42:00.396Z,70.39
2017-05-21T03:43:15.760Z,70.58
2017-05-21T03:44:31.132Z,70.58
2017-05-21T03:46:17.569Z,70.29
2017-05-21T03:47:33.088Z,70.58
2017-05-21T03:48:45.847Z,70.67
2017-05-21T03:50:01.174Z,70.2
2017-05-21T03:51:15.526Z,70.48
2017-05-21T03:52:30.881Z,70.48
2017-05-21T03:53:46.282Z,70.39
2017-05-21T03:55:00.193Z,70.39
2017-05-21T03:56:14.241Z,70.67
2017-05-21T03:57:27.246Z,70.58
2017-05-21T03:58:38.692Z,70.67
2017-05-21T03:59:54.016Z,70.29
2017-05-21T04:01:08.064Z,70.29
2017-05-21T04:02:23.650Z,69.82
2017-05-21T04:03:39.149Z,69.91
2017-05-21T04:04:53.284Z,70.2
2017-05-21T04:06:06.043Z,70.01
2017-05-21T04:07:21.603Z,70.04
2017-05-21T04:08:34.223Z,70.01
2017-05-21T04:09:49.553Z,70.01
2017-05-21T04:11:03.591Z,70.1
2017-05-21T04:12:17.668Z,69.82
2017-05-21T04:13:32.095Z,70.01
2017-05-21T04:14:46.226Z,70.2
2017-05-21T04:15:58.879Z,70.01
2017-05-21T04:17:14.218Z,70.1
2017-05-21T04:19:00.495Z,70.01
2017-05-21T04:20:13.265Z,70.01
2017-05-21T04:21:27.285Z,70.01
2017-05-21T04:22:41.442Z,70.1
2017-05-21T04:23:56.817Z,69.95
2017-05-21T04:25:12.139Z,70.04
2017-05-21T04:26:58.388Z,70.14
2017-05-21T04:28:13.564Z,70.14
2017-05-21T04:29:27.602Z,70.14
2017-05-21T04:30:41.758Z,70.04
2017-05-21T04:31:55.794Z,70.14
2017-05-21T04:33:11.337Z,70.04
2017-05-21T04:34:24.087Z,70.23
2017-05-21T04:35:38.180Z,70.04
2017-05-21T04:36:52.234Z,70.14
2017-05-21T04:38:37.333Z,69.85
2017-05-21T04:39:50.171Z,69.85
2017-05-21T04:41:05.501Z,70.14
2017-05-21T04:42:21.009Z,69.76
2017-05-21T04:43:35.369Z,69.56
2017-05-21T04:44:50.718Z,69.76
2017-05-21T04:46:06.068Z,69.02
2017-05-21T04:47:21.401Z,69.02
2017-05-21T04:48:36.949Z,68.93
2017-05-21T04:49:52.531Z,69.21
2017-05-21T04:51:05.232Z,68.45
2017-05-21T04:52:19.309Z,68.64
2017-05-21T04:53:33.379Z,68.84
2017-05-21T04:54:47.687Z,68.93
2017-05-21T04:56:03.068Z,68.93
2017-05-21T04:57:18.408Z,69.21
2017-05-21T04:58:33.986Z,69.02
2017-05-21T04:59:48.229Z,68.93
2017-05-21T05:01:00.987Z,68.64
2017-05-21T05:02:15.106Z,68.55
2017-05-21T05:03:30.438Z,68.55
2017-05-21T05:04:44.728Z,68.55
2017-05-21T05:06:00.120Z,68.45
2017-05-21T05:07:14.359Z,68.16
2017-05-21T05:08:28.404Z,68.07
2017-05-21T05:09:42.756Z,68.1
2017-05-21T05:10:58.102Z,68.1
2017-05-21T05:12:13.071Z,68.01
2017-05-21T05:13:28.423Z,67.63
2017-05-21T05:14:43.983Z,68.01
2017-05-21T05:15:58.305Z,67.82
2017-05-21T05:17:13.630Z,67.91
2017-05-21T05:18:26.500Z,68.39
2017-05-21T05:19:39.271Z,68.58
2017-05-21T05:20:54.818Z,68.01
2017-05-21T05:22:10.190Z,68.29
2017-05-21T05:23:25.523Z,68.01
2017-05-21T05:24:41.142Z,68.1
2017-05-21T05:25:56.467Z,67.85
2017-05-21T05:27:10.507Z,68.04
2017-05-21T05:28:23.372Z,68.13
2017-05-21T05:29:36.001Z,68.04
2017-05-21T05:30:50.323Z,67.85
2017-05-21T05:32:04.467Z,68.04
2017-05-21T05:33:19.829Z,67.85
2017-05-21T05:34:33.916Z,67.85
2017-05-21T05:35:49.516Z,67.37
2017-05-21T05:37:04.929Z,67.76
2017-05-21T05:38:16.346Z,67.56
2017-05-21T05:39:30.398Z,67.41
2017-05-21T05:40:45.840Z,67.31
2017-05-21T05:42:00.007Z,67.31
2017-05-21T05:43:15.566Z,67.6
2017-05-21T05:44:29.736Z,66.83
2017-05-21T05:46:13.493Z,66.64
2017-05-21T05:47:27.608Z,66.64
2017-05-21T05:48:42.929Z,66.83
2017-05-21T05:49:58.312Z,66.74
2017-05-21T05:51:12.395Z,66.35
2017-05-21T05:52:25.291Z,66.54
2017-05-21T05:53:40.707Z,66.06
2017-05-21T05:54:54.805Z,66
2017-05-21T05:56:08.903Z,65.91
2017-05-21T05:57:24.457Z,66.48
2017-05-21T05:58:39.785Z,66
2017-05-21T05:59:55.180Z,66.19
2017-05-21T06:01:10.512Z,66
2017-05-21T06:02:26.104Z,66.09
2017-05-21T06:03:41.488Z,65.91
2017-05-21T06:04:56.452Z,66
2017-05-21T06:06:11.798Z,66
2017-05-21T06:07:27.449Z,65.55
2017-05-21T06:08:42.845Z,64.89
2017-05-21T06:09:58.190Z,65.17
2017-05-21T06:11:13.530Z,64.98
2017-05-21T06:12:27.488Z,64.98
2017-05-21T06:13:42.808Z,65.17
2017-05-21T06:14:58.374Z,65.08
2017-05-21T06:16:13.938Z,64.59
2017-05-21T06:17:29.565Z,64.69
2017-05-21T06:18:44.917Z,64.5
2017-05-21T06:19:58.877Z,64.12
2017-05-21T06:21:14.249Z,64.02
2017-05-21T06:22:29.829Z,64.31
2017-05-21T06:23:45.371Z,64.69
2017-05-21T06:25:00.709Z,64.59
2017-05-21T06:26:15.762Z,64.59
2017-05-21T06:27:31.365Z,64.79
2017-05-21T06:28:45.579Z,64.25
2017-05-21T06:30:00.947Z,64.25
2017-05-21T06:31:16.364Z,63.96
2017-05-21T06:32:31.936Z,63.38
2017-05-21T06:33:47.306Z,62.81
2017-05-21T06:35:02.502Z,63
2017-05-21T06:36:16.559Z,63.29
2017-05-21T06:37:32.099Z,63.09
2017-05-21T06:38:46.011Z,63.09
2017-05-21T06:40:01.362Z,63
2017-05-21T06:41:16.742Z,63.48
2017-05-21T06:42:32.524Z,62.84
2017-05-21T06:43:45.302Z,62.55
2017-05-21T06:45:00.737Z,62.55
2017-05-21T06:46:15.698Z,62.84
2017-05-21T06:47:31.340Z,62.93
2017-05-21T06:48:46.687Z,63.32
2017-05-21T06:50:00.612Z,61.78
2017-05-21T06:51:15.948Z,61.78
2017-05-21T06:52:30.218Z,61.69
2017-05-21T06:53:45.572Z,61.88
2017-05-21T06:55:00.904Z,61.3
2017-05-21T06:56:13.657Z,61.3
2017-05-21T06:57:29.045Z,61.59
2017-05-21T06:58:43.370Z,61.14
2017-05-21T06:59:58.919Z,60.66
2017-05-21T07:01:14.294Z,60.85
2017-05-21T07:02:28.339Z,60.38
2017-05-21T07:03:43.928Z,60.57
2017-05-21T07:04:59.365Z,60.57
2017-05-21T07:06:14.701Z,59.89
2017-05-21T07:07:30.036Z,59.32
2017-05-21T07:08:44.285Z,59.22
2017-05-21T07:09:57.062Z,58.94
2017-05-21T07:11:12.446Z,59.41
2017-05-21T07:12:58.835Z,59.7
2017-05-21T07:14:14.276Z,58.64
2017-05-21T07:15:28.337Z,58.45
2017-05-21T07:17:13.289Z,58.26
2017-05-21T07:18:28.870Z,58.07
2017-05-21T07:19:44.202Z,57.9
2017-05-21T07:20:59.554Z,57.81
2017-05-21T07:22:14.898Z,57.33
2017-05-21T07:23:29.031Z,56.46
2017-05-21T07:24:44.408Z,56.46
2017-05-21T07:25:58.460Z,56.95
2017-05-21T07:27:13.802Z,57.04
2017-05-21T07:28:28.118Z,57.45
2017-05-21T07:29:43.485Z,57.43
2017-05-21T07:30:58.839Z,56.3
2017-05-21T07:32:14.194Z,54.38
2017-05-21T07:33:29.440Z,54.77
2017-05-21T07:34:44.767Z,54.77
2017-05-21T07:35:58.816Z,53.8
2017-05-21T07:37:12.874Z,52.75
2017-05-21T07:38:25.649Z,52.46
2017-05-21T07:39:41.259Z,52.36
2017-05-21T07:40:56.696Z,52.55
2017-05-21T07:42:10.825Z,52.2
2017-05-21T07:43:24.917Z,52.55
2017-05-21T07:44:40.507Z,51.5
2017-05-21T07:45:55.855Z,49.51
2017-05-21T07:47:08.622Z,49.22
2017-05-21T07:48:22.684Z,50.08
2017-05-21T07:49:36.772Z,50.66
2017-05-21T07:50:49.535Z,50.76
2017-05-21T07:52:04.883Z,49.12
2017-05-21T07:53:19.240Z,49.22
2017-05-21T07:54:34.905Z,48.35
2017-05-21T07:55:50.261Z,46.43
2017-05-21T07:57:03.257Z,46.53
2017-05-21T07:58:18.610Z,46.72
2017-05-21T07:59:31.244Z,47.3
2017-05-21T08:00:46.825Z,47.68
2017-05-21T08:02:02.223Z,48.64
2017-05-21T08:03:17.558Z,47.39
2017-05-21T08:04:32.940Z,47.77
2017-05-21T08:05:48.482Z,48.57
2017-05-21T08:07:02.575Z,46.64
2017-05-21T08:08:17.928Z,45.39
2017-05-21T08:09:31.894Z,44.43
2017-05-21T08:10:47.599Z,44.62
2017-05-21T08:12:01.712Z,45.2
2017-05-21T08:13:17.081Z,45.87
2017-05-21T08:14:32.417Z,46.06
2017-05-21T08:15:45.363Z,46.36
2017-05-21T08:16:57.774Z,45.99
2017-05-21T08:18:12.084Z,46.19
2017-05-21T08:19:27.472Z,46.28
2017-05-21T08:20:43.094Z,45.22
2017-05-21T08:21:57.403Z,44.45
2017-05-21T08:23:11.475Z,45.51
2017-05-21T08:24:26.856Z,44.26
2017-05-21T08:25:41.342Z,43.23
2017-05-21T08:26:56.773Z,43.32
2017-05-21T08:28:12.121Z,43.8
2017-05-21T08:29:27.520Z,43.23
2017-05-21T08:30:43.062Z,42.47
2017-05-21T08:31:57.156Z,42.09
2017-05-21T08:33:12.512Z,41.24
2017-05-21T08:34:26.630Z,41.24
2017-05-21T08:35:40.684Z,40.95
2017-05-21T08:36:56.273Z,41.65
2017-05-21T08:38:11.684Z,41.55
2017-05-21T08:39:27.185Z,40.8
2017-05-21T08:40:41.305Z,39.74
2017-05-21T08:41:57.351Z,37.45
2017-05-21T08:43:12.717Z,35.53
2017-05-21T08:44:27.011Z,33.72
2017-05-21T08:45:40.933Z,31.7
2017-05-21T08:46:56.489Z,30.17
2017-05-21T08:48:10.640Z,30.28
2017-05-21T08:49:25.018Z,29.91
2017-05-21T08:50:37.788Z,30.32
2017-05-21T08:51:50.984Z,31.59
2017-05-21T08:53:05.164Z,28.51
2017-05-21T08:54:19.097Z,26.1
2017-05-21T08:55:34.443Z,24.85
2017-05-21T08:56:50.083Z,25.63
2017-05-21T08:58:05.089Z,26.01
2017-05-21T08:59:20.584Z,25.82
2017-05-21T09:00:35.946Z,25.04
2017-05-21T09:01:48.749Z,24.96
2017-05-21T09:03:04.306Z,25.05
2017-05-21T09:04:19.667Z,25.95
2017-05-21T09:05:35.154Z,25.08
2017-05-21T09:06:49.233Z,23.91
2017-05-21T09:08:03.386Z,22.86
2017-05-21T09:09:16.257Z,24.32
2017-05-21T09:10:31.670Z,24.61
2017-05-21T09:11:45.768Z,23.45
2017-05-21T09:13:01.345Z,23.84
2017-05-21T09:14:16.945Z,23.56
2017-05-21T09:15:32.376Z,23.47
2017-05-21T09:16:47.775Z,22.8
2017-05-21T09:18:03.222Z,22.02
2017-05-21T09:19:18.594Z,21.45
2017-05-21T09:20:33.979Z,21.35
2017-05-21T09:21:49.746Z,21.44
2017-05-21T09:23:05.622Z,21.64
2017-05-21T09:24:19.753Z,22.5
2017-05-21T09:25:32.402Z,22.99
2017-05-21T09:26:46.490Z,21.33
2017-05-21T09:28:00.862Z,20.75
2017-05-21T09:29:16.237Z,21.71
2017-05-21T09:30:31.617Z,21.69
2017-05-21T09:31:46.968Z,22.55
2017-05-21T09:33:01.283Z,22.66
2017-05-21T09:34:15.388Z,21.59
2017-05-21T09:35:30.773Z,22.3
2017-05-21T09:36:46.483Z,21.04
2017-05-21T09:38:02.098Z,20.56
2017-05-21T09:39:16.178Z,19.89
2017-05-21T09:40:32.106Z,20.07
2017-05-21T09:41:44.762Z,20.45
2017-05-21T09:42:59.092Z,21.12
2017-05-21T09:44:13.175Z,21.5
2017-05-21T09:45:28.603Z,21.97
2017-05-21T09:46:44.004Z,22.92
2017-05-21T09:47:59.568Z,22.81
2017-05-21T09:49:14.562Z,22.62
2017-05-21T09:50:29.914Z,22.44
2017-05-21T09:51:45.279Z,21.28
2017-05-21T09:53:00.890Z,20.14
2017-05-21T09:54:14.900Z,19.08
2017-05-21T09:55:30.352Z,19.76
2017-05-21T09:56:44.423Z,20.42
2017-05-21T09:57:59.842Z,20.73
2017-05-21T09:59:15.423Z,19.95
2017-05-21T10:00:30.790Z,20.64
2017-05-21T10:01:45.119Z,20.43
2017-05-21T10:03:00.491Z,20.64
2017-05-21T10:04:14.780Z,20.16
2017-05-21T10:05:30.138Z,19.96
2017-05-21T10:06:44.070Z,20.17
2017-05-21T10:07:59.420Z,19.68
2017-05-21T10:09:13.720Z,19.31
2017-05-21T10:10:29.079Z,19.21
2017-05-21T10:12:15.296Z,18.91
2017-05-21T10:13:30.950Z,18.82
2017-05-21T10:14:46.347Z,18.54
2017-05-21T10:16:00.446Z,18.34
2017-05-21T10:17:15.884Z,18.73
2017-05-21T10:18:30.300Z,18.63
2017-05-21T10:19:45.732Z,18.24
2017-05-21T10:21:01.103Z,18.82
2017-05-21T10:22:16.608Z,18.82
2017-05-21T10:23:32.257Z,18.92
2017-05-21T10:24:46.355Z,19.31
2017-05-21T10:26:00.461Z,18.91
2017-05-21T10:27:13.125Z,19.9
2017-05-21T10:28:28.486Z,19.99
2017-05-21T10:29:44.098Z,20.17
2017-05-21T10:30:59.472Z,21.14
2017-05-21T10:32:14.917Z,21.5
2017-05-21T10:33:30.327Z,22.56
2017-05-21T10:34:44.672Z,22.94
2017-05-21T10:36:00.028Z,23.13
2017-05-21T10:37:15.392Z,23.7
2017-05-21T10:38:29.531Z,23.6
2017-05-21T10:39:45.151Z,24.37
2017-05-21T10:41:00.753Z,24.85
2017-05-21T10:42:16.132Z,25.13
2017-05-21T10:43:30.120Z,24.92
2017-05-21T10:44:45.863Z,24.73
2017-05-21T10:46:01.241Z,24.74
2017-05-21T10:47:16.664Z,24.85
2017-05-21T10:48:32.116Z,23.7
2017-05-21T10:49:46.393Z,23.9
2017-05-21T10:51:01.800Z,22.55
2017-05-21T10:52:14.487Z,20.04
2017-05-21T10:53:28.558Z,19.65
2017-05-21T10:54:42.773Z,20.43
2017-05-21T10:55:58.209Z,21.3
2017-05-21T10:57:13.596Z,21.97
2017-05-21T10:58:27.741Z,22.54
2017-05-21T10:59:43.308Z,22.82
2017-05-21T11:00:57.404Z,22.81
2017-05-21T11:02:12.898Z,22.81
2017-05-21T11:03:27.058Z,23.79
2017-05-21T11:04:42.487Z,24.35
2017-05-21T11:05:58.058Z,24.55
2017-05-21T11:07:13.729Z,25.13
2017-05-21T11:08:29.117Z,25.99
2017-05-21T11:09:44.584Z,26.17
2017-05-21T11:11:00.751Z,26.64
2017-05-21T11:12:15.443Z,27.03
2017-05-21T11:13:30.849Z,27.6
2017-05-21T11:14:46.234Z,27.58
2017-05-21T11:16:01.685Z,28.07
2017-05-21T11:17:16.969Z,27.96
2017-05-21T11:18:31.131Z,27.57
2017-05-21T11:19:46.490Z,27.57
2017-05-21T11:21:01.906Z,27.09
2017-05-21T11:22:14.891Z,26.72
2017-05-21T11:23:30.253Z,26.32
2017-05-21T11:24:44.334Z,25.27
2017-05-21T11:25:59.846Z,24.32
2017-05-21T11:27:15.420Z,24.52
2017-05-21T11:28:31.017Z,24.15
2017-05-21T11:29:46.447Z,22.42
2017-05-21T11:31:00.638Z,21.56
2017-05-21T11:32:14.623Z,21.28
2017-05-21T11:33:29.015Z,22.63
2017-05-21T11:34:43.118Z,22.72
2017-05-21T11:35:58.490Z,23.59
2017-05-21T11:37:13.862Z,24.65
2017-05-21T11:38:26.917Z,23.96
2017-05-21T11:39:41.159Z,24.26
2017-05-21T11:40:55.244Z,24.44
2017-05-21T11:42:10.867Z,24.43
2017-05-21T11:43:24.999Z,24.8
2017-05-21T11:44:39.143Z,24.79
2017-05-21T11:45:53.258Z,24.98
2017-05-21T11:47:08.642Z,24.61
2017-05-21T11:48:24.216Z,24.91
2017-05-21T11:49:40.070Z,24.54
2017-05-21T11:50:54.213Z,23.48
2017-05-21T11:52:09.603Z,22.61
2017-05-21T11:53:25.160Z,22.82
2017-05-21T11:54:40.586Z,22.74
2017-05-21T11:55:55.986Z,21.67
2017-05-21T11:57:11.442Z,21.09
2017-05-21T11:58:27.041Z,20.62
2017-05-21T11:59:41.007Z,21.69
2017-05-21T12:00:56.617Z,20.91
2017-05-21T12:02:12.038Z,21.11
2017-05-21T12:03:27.663Z,21.29
2017-05-21T12:04:43.091Z,21.57
2017-05-21T12:05:57.048Z,22.44
2017-05-21T12:07:12.442Z,22.63
2017-05-21T12:08:28.065Z,22.81
2017-05-21T12:09:43.448Z,23.2
2017-05-21T12:10:58.826Z,23.66
2017-05-21T12:12:12.934Z,24.72
2017-05-21T12:13:27.213Z,24.91
2017-05-21T12:14:41.331Z,25.27
2017-05-21T12:15:56.690Z,25.85
2017-05-21T12:17:12.109Z,25.85
2017-05-21T12:18:27.672Z,26.23
2017-05-21T12:19:43.258Z,26.14
2017-05-21T12:20:57.388Z,25.63
2017-05-21T12:22:13.078Z,25.93
2017-05-21T12:23:28.806Z,26.31
2017-05-21T12:24:44.189Z,26.5
2017-05-21T12:25:59.628Z,26.88
2017-05-21T12:27:13.625Z,26.4
2017-05-21T12:28:29.213Z,27.26
2017-05-21T12:29:43.539Z,27.56
2017-05-21T12:30:59.016Z,27.45
2017-05-21T12:32:15.084Z,27.35
2017-05-21T12:33:31.160Z,27.73
2017-05-21T12:34:45.312Z,28.22
2017-05-21T12:35:59.491Z,27.73
2017-05-21T12:37:14.875Z,28.03
2017-05-21T12:38:28.962Z,27.35
2017-05-21T12:39:44.823Z,27.64
2017-05-21T12:40:58.902Z,27.93
2017-05-21T12:42:12.846Z,27.64
2017-05-21T12:43:28.291Z,27.45
2017-05-21T12:44:42.444Z,27.56
2017-05-21T12:45:56.555Z,27.56
2017-05-21T12:47:11.958Z,27.66
2017-05-21T12:48:26.123Z,27.85
2017-05-21T12:49:41.706Z,28.03
2017-05-21T12:50:57.064Z,28.03
2017-05-21T12:52:12.457Z,28.03
2017-05-21T12:53:59.228Z,28.31
2017-05-21T12:55:14.576Z,28.22
2017-05-21T12:56:27.266Z,27.93
2017-05-21T12:57:41.219Z,28.03
2017-05-21T12:58:56.959Z,28.13
2017-05-21T13:00:11.054Z,28.22
2017-05-21T13:01:26.402Z,28.13
2017-05-21T13:03:12.641Z,28.41
2017-05-21T13:04:26.968Z,29.09
2017-05-21T13:05:42.391Z,28.22
2017-05-21T13:06:57.807Z,28.31
2017-05-21T13:08:13.169Z,28.31
2017-05-21T13:09:28.863Z,28.41
2017-05-21T13:10:44.220Z,28.69
2017-05-21T13:11:58.291Z,29.56
2017-05-21T13:13:13.652Z,28.4
2017-05-21T13:14:27.920Z,28.3
2017-05-21T13:15:43.295Z,28.11
2017-05-21T13:16:58.698Z,28.11
2017-05-21T13:18:14.084Z,27.44
2017-05-21T13:19:29.739Z,26.46
2017-05-21T13:20:43.846Z,26.86
2017-05-21T13:21:59.219Z,27.72
2017-05-21T13:23:14.619Z,28.02
2017-05-21T13:24:25.974Z,28.2
2017-05-21T13:25:41.549Z,28.4
2017-05-21T13:26:56.936Z,28.59
2017-05-21T13:28:12.419Z,28.29
2017-05-21T13:29:26.525Z,28.88
2017-05-21T13:30:40.843Z,28.5
2017-05-21T13:31:55.931Z,28.2
2017-05-21T13:33:11.301Z,27.53
2017-05-21T13:34:26.841Z,28.2
2017-05-21T13:35:41.193Z,27.53
2017-05-21T13:36:56.585Z,26.66
2017-05-21T13:38:10.769Z,26.95
2017-05-21T13:39:24.962Z,27.55
2017-05-21T13:40:40.544Z,26.09
2017-05-21T13:41:53.194Z,26.09
2017-05-21T13:43:07.271Z,26.39
2017-05-21T13:44:22.659Z,26.19
2017-05-21T13:45:38.309Z,26.29
2017-05-21T13:46:52.418Z,26.57
2017-05-21T13:48:07.823Z,27.08
2017-05-21T13:49:23.229Z,27.46
2017-05-21T13:50:36.201Z,27.08
2017-05-21T13:51:51.600Z,26.59
2017-05-21T13:53:07.018Z,26.1
2017-05-21T13:54:22.050Z,26.88
2017-05-21T13:55:37.797Z,27.56
2017-05-21T13:56:53.172Z,26.68
2017-05-21T13:58:08.734Z,26.3
2017-05-21T13:59:24.382Z,26.2
2017-05-21T14:00:38.722Z,26.01
2017-05-21T14:01:52.544Z,26.61
2017-05-21T14:03:07.917Z,26.78
2017-05-21T14:04:23.364Z,26.98
2017-05-21T14:05:38.687Z,26.5
2017-05-21T14:06:52.671Z,26.4
2017-05-21T14:08:06.833Z,26.4
2017-05-21T14:09:22.243Z,25.62
2017-05-21T14:10:38.077Z,25.24
2017-05-21T14:11:52.201Z,25.34
2017-05-21T14:13:06.312Z,25.34
2017-05-21T14:14:21.677Z,25.24
2017-05-21T14:15:37.055Z,25.43
2017-05-21T14:16:51.398Z,25.54
2017-05-21T14:18:06.896Z,25.52
2017-05-21T14:19:21.223Z,25.44
2017-05-21T14:20:36.639Z,25.34
2017-05-21T14:21:52.260Z,25.43
2017-05-21T14:23:06.599Z,25.82
2017-05-21T14:24:20.714Z,26.1
2017-05-21T14:25:35.105Z,26.1
2017-05-21T14:26:50.789Z,26.01
2017-05-21T14:28:06.264Z,26.03
2017-05-21T14:29:21.642Z,25.83
2017-05-21T14:30:37.025Z,25.63
2017-05-21T14:31:52.695Z,25.54
2017-05-21T14:33:08.060Z,25.92
2017-05-21T14:34:23.497Z,25.73
2017-05-21T14:35:38.855Z,26.03
2017-05-21T14:36:54.557Z,26.3
2017-05-21T14:38:09.755Z,25.93
2017-05-21T14:39:25.121Z,25.44
2017-05-21T14:40:39.206Z,26.12
2017-05-21T14:41:53.508Z,26.12
2017-05-21T14:43:08.947Z,25.93
2017-05-21T14:44:24.093Z,26.12
2017-05-21T14:45:39.543Z,25.72
2017-05-21T14:46:55.135Z,25.62
2017-05-21T14:48:10.609Z,25.14
2017-05-21T14:49:26.031Z,25.35
2017-05-21T14:50:41.449Z,25.04
2017-05-21T14:51:57.049Z,24.85
2017-05-21T14:53:12.645Z,25.52
2017-05-21T14:54:28.314Z,25.82
2017-05-21T14:55:43.714Z,26.01
2017-05-21T14:56:59.408Z,25.92
2017-05-21T14:58:14.823Z,25.73
2017-05-21T14:59:30.247Z,25.63
2017-05-21T15:00:44.337Z,25.72
2017-05-21T15:01:58.682Z,25.63
2017-05-21T15:03:14.170Z,25.35
2017-05-21T15:04:29.579Z,25.35
2017-05-21T15:05:44.989Z,26.12
2017-05-21T15:06:58.282Z,25.93
2017-05-21T15:08:13.690Z,25.73
2017-05-21T15:09:29.083Z,25.63
2017-05-21T15:10:44.574Z,26.03
2017-05-21T15:11:58.733Z,26.12
2017-05-21T15:13:13.058Z,26.31
2017-05-21T15:14:28.497Z,25.25
2017-05-21T15:15:43.947Z,25.25
2017-05-21T15:16:59.557Z,25.44
2017-05-21T15:18:13.637Z,25.25
2017-05-21T15:19:29.162Z,25.15
2017-05-21T15:20:44.141Z,25.35
2017-05-21T15:21:58.220Z,25.62
2017-05-21T15:23:13.870Z,25.63
2017-05-21T15:24:29.275Z,26.1
2017-05-21T15:25:44.665Z,25.82
2017-05-21T15:27:00.037Z,26.1
2017-05-21T15:28:14.451Z,26.01
2017-05-21T15:29:30.034Z,26.2
2017-05-21T15:30:44.921Z,26.09
2017-05-21T15:31:58.642Z,26.19
2017-05-21T15:33:14.250Z,26.48
2017-05-21T15:34:29.634Z,27.15
2017-05-21T15:35:45.015Z,26.77
2017-05-21T15:37:00.203Z,26.39
2017-05-21T15:38:15.854Z,26.57
2017-05-21T15:39:31.239Z,26.87
2017-05-21T15:40:45.182Z,26.5
2017-05-21T15:41:59.316Z,26.57
2017-05-21T15:43:14.889Z,26.09
2017-05-21T15:44:30.257Z,26.29
2017-05-21T15:45:41.796Z,26.29
2017-05-21T15:46:57.153Z,27.06
2017-05-21T15:48:12.978Z,27.83
2017-05-21T15:49:28.356Z,27.64
2017-05-21T15:50:43.753Z,27.45
2017-05-21T15:51:59.098Z,27.55
2017-05-21T15:53:12.286Z,26.67
2017-05-21T15:54:27.664Z,26.57
2017-05-21T15:55:43.067Z,26.87
2017-05-21T15:56:58.490Z,26.87
2017-05-21T15:58:14.102Z,26.4
2017-05-21T15:59:28.185Z,26.2
2017-05-21T16:00:43.591Z,26.1
2017-05-21T16:01:59.038Z,26.01
2017-05-21T16:03:10.557Z,25.62
2017-05-21T16:04:26.175Z,26.1
2017-05-21T16:05:41.541Z,26.2
2017-05-21T16:06:57.047Z,26.2
2017-05-21T16:08:12.492Z,26.2
2017-05-21T16:09:26.785Z,26.5
2017-05-21T16:10:42.192Z,26.68
2017-05-21T16:11:57.562Z,26.98
2017-05-21T16:13:13.052Z,26.59